sensor_id;sensor_type;location;lat;lon;timestamp;P1;durP1;ratioP1;P2;durP2;ratioP2
36745;SDS011;22715;52.182;21.206;2023-09-08T00:01:55;8.40;;;5.35;;
36745;SDS011;22715;52.182;21.206;2023-09-08T00:04:20;6.38;;;5.38;;
36745;SDS011;22715;52.182;21.206;2023-09-08T00:06:46;8.27;;;5.00;;
36745;SDS011;22715;52.182;21.206;2023-09-08T00:09:11;6.85;;;5.53;;
36745;SDS011;22715;52.182;21.206;2023-09-08T00:11:36;6.90;;;5.50;;
36745;SDS011;22715;52.182;21.206;2023-09-08T00:14:01;10.00;;;5.97;;
36745;SDS011;22715;52.182;21.206;2023-09-08T00:16:28;6.43;;;5.47;;
36745;SDS011;22715;52.182;21.206;2023-09-08T00:18:54;10.80;;;5.90;;
36745;SDS011;22715;52.182;21.206;2023-09-08T00:21:20;8.60;;;5.85;;
36745;SDS011;22715;52.182;21.206;2023-09-08T00:23:45;7.93;;;5.47;;
36745;SDS011;22715;52.182;21.206;2023-09-08T00:26:10;5.68;;;4.72;;
36745;SDS011;22715;52.182;21.206;2023-09-08T00:28:35;7.30;;;4.93;;
36745;SDS011;22715;52.182;21.206;2023-09-08T00:31:01;5.53;;;4.90;;
36745;SDS011;22715;52.182;21.206;2023-09-08T00:33:26;10.35;;;4.55;;
36745;SDS011;22715;52.182;21.206;2023-09-08T00:35:51;8.43;;;5.97;;
36745;SDS011;22715;52.182;21.206;2023-09-08T00:38:18;5.90;;;5.30;;
36745;SDS011;22715;52.182;21.206;2023-09-08T00:40:44;8.18;;;5.50;;
36745;SDS011;22715;52.182;21.206;2023-09-08T00:43:09;7.65;;;5.22;;
36745;SDS011;22715;52.182;21.206;2023-09-08T00:45:36;5.97;;;5.38;;
36745;SDS011;22715;52.182;21.206;2023-09-08T00:48:03;5.63;;;4.95;;
36745;SDS011;22715;52.182;21.206;2023-09-08T00:50:28;8.18;;;5.03;;
36745;SDS011;22715;52.182;21.206;2023-09-08T00:52:54;5.60;;;4.55;;
36745;SDS011;22715;52.182;21.206;2023-09-08T00:55:19;6.20;;;5.38;;
36745;SDS011;22715;52.182;21.206;2023-09-08T00:57:44;6.47;;;5.32;;
36745;SDS011;22715;52.182;21.206;2023-09-08T01:00:10;9.02;;;5.38;;
36745;SDS011;22715;52.182;21.206;2023-09-08T01:02:36;7.47;;;4.80;;
36745;SDS011;22715;52.182;21.206;2023-09-08T01:05:01;7.03;;;5.28;;
36745;SDS011;22715;52.182;21.206;2023-09-08T01:07:27;8.07;;;5.72;;
36745;SDS011;22715;52.182;21.206;2023-09-08T01:09:54;6.35;;;5.30;;
36745;SDS011;22715;52.182;21.206;2023-09-08T01:12:20;8.90;;;4.88;;
36745;SDS011;22715;52.182;21.206;2023-09-08T01:14:45;8.52;;;5.28;;
36745;SDS011;22715;52.182;21.206;2023-09-08T01:17:10;9.02;;;5.55;;
36745;SDS011;22715;52.182;21.206;2023-09-08T01:25:24;7.30;;;5.38;;
36745;SDS011;22715;52.182;21.206;2023-09-08T01:27:50;6.38;;;5.50;;
36745;SDS011;22715;52.182;21.206;2023-09-08T01:30:15;10.45;;;5.90;;
36745;SDS011;22715;52.182;21.206;2023-09-08T01:32:41;7.82;;;4.30;;
36745;SDS011;22715;52.182;21.206;2023-09-08T01:35:07;9.63;;;5.65;;
36745;SDS011;22715;52.182;21.206;2023-09-08T01:37:32;10.13;;;5.55;;
36745;SDS011;22715;52.182;21.206;2023-09-08T01:39:58;5.83;;;5.03;;
36745;SDS011;22715;52.182;21.206;2023-09-08T01:42:23;8.37;;;5.90;;
36745;SDS011;22715;52.182;21.206;2023-09-08T01:44:48;7.32;;;5.07;;
36745;SDS011;22715;52.182;21.206;2023-09-08T01:47:13;5.88;;;4.55;;
36745;SDS011;22715;52.182;21.206;2023-09-08T01:49:39;5.70;;;5.15;;
36745;SDS011;22715;52.182;21.206;2023-09-08T01:52:04;6.88;;;4.97;;
36745;SDS011;22715;52.182;21.206;2023-09-08T01:54:30;5.13;;;4.55;;
36745;SDS011;22715;52.182;21.206;2023-09-08T01:56:55;6.18;;;4.55;;
36745;SDS011;22715;52.182;21.206;2023-09-08T01:59:20;8.80;;;4.70;;
36745;SDS011;22715;52.182;21.206;2023-09-08T02:01:45;7.00;;;5.20;;
36745;SDS011;22715;52.182;21.206;2023-09-08T02:04:10;6.72;;;4.90;;
36745;SDS011;22715;52.182;21.206;2023-09-08T02:06:36;11.63;;;4.97;;
36745;SDS011;22715;52.182;21.206;2023-09-08T02:09:01;5.90;;;5.00;;
36745;SDS011;22715;52.182;21.206;2023-09-08T02:11:26;7.30;;;5.78;;
36745;SDS011;22715;52.182;21.206;2023-09-08T02:13:52;7.65;;;5.30;;
36745;SDS011;22715;52.182;21.206;2023-09-08T02:16:17;6.55;;;4.78;;
36745;SDS011;22715;52.182;21.206;2023-09-08T02:18:43;7.75;;;5.32;;
36745;SDS011;22715;52.182;21.206;2023-09-08T02:21:08;8.05;;;5.57;;
36745;SDS011;22715;52.182;21.206;2023-09-08T02:23:34;9.70;;;5.45;;
36745;SDS011;22715;52.182;21.206;2023-09-08T02:25:59;5.30;;;4.80;;
36745;SDS011;22715;52.182;21.206;2023-09-08T02:28:24;4.88;;;4.38;;
36745;SDS011;22715;52.182;21.206;2023-09-08T02:30:49;7.72;;;5.28;;
36745;SDS011;22715;52.182;21.206;2023-09-08T02:33:15;5.93;;;5.28;;
36745;SDS011;22715;52.182;21.206;2023-09-08T02:35:40;6.25;;;4.72;;
36745;SDS011;22715;52.182;21.206;2023-09-08T02:38:05;6.28;;;5.18;;
36745;SDS011;22715;52.182;21.206;2023-09-08T02:40:30;12.27;;;5.85;;
36745;SDS011;22715;52.182;21.206;2023-09-08T02:42:59;7.93;;;5.93;;
36745;SDS011;22715;52.182;21.206;2023-09-08T02:45:24;6.97;;;4.72;;
36745;SDS011;22715;52.182;21.206;2023-09-08T02:47:49;7.00;;;5.68;;
36745;SDS011;22715;52.182;21.206;2023-09-08T02:50:14;6.67;;;5.97;;
36745;SDS011;22715;52.182;21.206;2023-09-08T02:52:40;5.75;;;4.93;;
36745;SDS011;22715;52.182;21.206;2023-09-08T02:55:05;9.67;;;5.63;;
36745;SDS011;22715;52.182;21.206;2023-09-08T02:57:30;12.27;;;5.88;;
36745;SDS011;22715;52.182;21.206;2023-09-08T02:59:55;8.27;;;6.28;;
36745;SDS011;22715;52.182;21.206;2023-09-08T03:02:22;7.80;;;5.13;;
36745;SDS011;22715;52.182;21.206;2023-09-08T03:04:47;8.68;;;6.53;;
36745;SDS011;22715;52.182;21.206;2023-09-08T03:07:12;6.23;;;5.60;;
36745;SDS011;22715;52.182;21.206;2023-09-08T03:09:37;7.55;;;5.55;;
36745;SDS011;22715;52.182;21.206;2023-09-08T03:12:03;17.27;;;6.00;;
36745;SDS011;22715;52.182;21.206;2023-09-08T03:14:28;9.98;;;5.60;;
36745;SDS011;22715;52.182;21.206;2023-09-08T03:16:53;9.05;;;5.88;;
36745;SDS011;22715;52.182;21.206;2023-09-08T03:19:19;9.40;;;5.65;;
36745;SDS011;22715;52.182;21.206;2023-09-08T03:21:44;11.23;;;5.55;;
36745;SDS011;22715;52.182;21.206;2023-09-08T03:24:09;13.02;;;8.02;;
36745;SDS011;22715;52.182;21.206;2023-09-08T03:26:34;8.35;;;5.90;;
36745;SDS011;22715;52.182;21.206;2023-09-08T03:29:00;8.65;;;5.82;;
36745;SDS011;22715;52.182;21.206;2023-09-08T03:31:25;7.35;;;5.50;;
36745;SDS011;22715;52.182;21.206;2023-09-08T03:33:50;6.65;;;5.50;;
36745;SDS011;22715;52.182;21.206;2023-09-08T03:36:16;6.38;;;5.32;;
36745;SDS011;22715;52.182;21.206;2023-09-08T03:38:41;8.68;;;5.70;;
36745;SDS011;22715;52.182;21.206;2023-09-08T03:41:07;8.10;;;6.20;;
36745;SDS011;22715;52.182;21.206;2023-09-08T03:43:32;7.60;;;6.30;;
36745;SDS011;22715;52.182;21.206;2023-09-08T03:45:57;6.13;;;5.18;;
36745;SDS011;22715;52.182;21.206;2023-09-08T03:48:22;6.30;;;4.90;;
36745;SDS011;22715;52.182;21.206;2023-09-08T03:50:48;5.68;;;4.80;;
36745;SDS011;22715;52.182;21.206;2023-09-08T03:53:13;7.60;;;5.00;;
36745;SDS011;22715;52.182;21.206;2023-09-08T03:55:38;6.20;;;4.65;;
36745;SDS011;22715;52.182;21.206;2023-09-08T03:58:03;5.72;;;4.63;;
36745;SDS011;22715;52.182;21.206;2023-09-08T04:00:29;6.32;;;5.72;;
36745;SDS011;22715;52.182;21.206;2023-09-08T04:02:54;9.13;;;5.15;;
36745;SDS011;22715;52.182;21.206;2023-09-08T04:05:19;9.18;;;5.85;;
36745;SDS011;22715;52.182;21.206;2023-09-08T04:07:45;5.93;;;5.28;;
36745;SDS011;22715;52.182;21.206;2023-09-08T04:10:10;8.85;;;5.45;;
36745;SDS011;22715;52.182;21.206;2023-09-08T04:12:36;9.23;;;5.93;;
36745;SDS011;22715;52.182;21.206;2023-09-08T04:15:01;8.35;;;5.03;;
36745;SDS011;22715;52.182;21.206;2023-09-08T04:17:26;8.23;;;5.78;;
36745;SDS011;22715;52.182;21.206;2023-09-08T04:19:51;7.20;;;5.43;;
36745;SDS011;22715;52.182;21.206;2023-09-08T04:22:17;6.37;;;5.53;;
36745;SDS011;22715;52.182;21.206;2023-09-08T04:24:42;7.53;;;5.55;;
36745;SDS011;22715;52.182;21.206;2023-09-08T04:27:07;5.45;;;4.60;;
36745;SDS011;22715;52.182;21.206;2023-09-08T04:29:34;7.30;;;5.88;;
36745;SDS011;22715;52.182;21.206;2023-09-08T04:31:59;6.93;;;5.78;;
36745;SDS011;22715;52.182;21.206;2023-09-08T04:34:24;6.85;;;5.97;;
36745;SDS011;22715;52.182;21.206;2023-09-08T04:36:50;6.20;;;5.25;;
36745;SDS011;22715;52.182;21.206;2023-09-08T04:39:15;7.53;;;5.63;;
36745;SDS011;22715;52.182;21.206;2023-09-08T04:41:41;5.72;;;5.13;;
36745;SDS011;22715;52.182;21.206;2023-09-08T04:44:06;7.25;;;5.82;;
36745;SDS011;22715;52.182;21.206;2023-09-08T04:46:31;6.95;;;4.97;;
36745;SDS011;22715;52.182;21.206;2023-09-08T04:48:57;7.95;;;6.80;;
36745;SDS011;22715;52.182;21.206;2023-09-08T04:51:22;7.47;;;5.65;;
36745;SDS011;22715;52.182;21.206;2023-09-08T04:53:47;5.93;;;5.32;;
36745;SDS011;22715;52.182;21.206;2023-09-08T04:56:13;8.75;;;6.25;;
36745;SDS011;22715;52.182;21.206;2023-09-08T04:58:38;6.05;;;5.45;;
36745;SDS011;22715;52.182;21.206;2023-09-08T05:01:04;6.13;;;5.50;;
36745;SDS011;22715;52.182;21.206;2023-09-08T05:03:30;8.32;;;5.88;;
36745;SDS011;22715;52.182;21.206;2023-09-08T05:05:55;7.25;;;5.60;;
36745;SDS011;22715;52.182;21.206;2023-09-08T05:08:21;7.97;;;5.53;;
36745;SDS011;22715;52.182;21.206;2023-09-08T05:10:46;6.73;;;5.10;;
36745;SDS011;22715;52.182;21.206;2023-09-08T05:13:11;5.60;;;4.70;;
36745;SDS011;22715;52.182;21.206;2023-09-08T05:15:36;7.23;;;5.43;;
36745;SDS011;22715;52.182;21.206;2023-09-08T05:18:02;6.78;;;5.00;;
36745;SDS011;22715;52.182;21.206;2023-09-08T05:20:28;9.38;;;6.55;;
36745;SDS011;22715;52.182;21.206;2023-09-08T05:22:56;7.20;;;6.07;;
36745;SDS011;22715;52.182;21.206;2023-09-08T05:25:21;8.70;;;5.57;;
36745;SDS011;22715;52.182;21.206;2023-09-08T05:27:47;8.23;;;5.82;;
36745;SDS011;22715;52.182;21.206;2023-09-08T05:30:33;6.07;;;5.50;;
36745;SDS011;22715;52.182;21.206;2023-09-08T05:32:58;7.95;;;6.20;;
36745;SDS011;22715;52.182;21.206;2023-09-08T05:35:24;8.23;;;5.55;;
36745;SDS011;22715;52.182;21.206;2023-09-08T05:37:49;7.53;;;6.18;;
36745;SDS011;22715;52.182;21.206;2023-09-08T05:40:14;8.20;;;5.60;;
36745;SDS011;22715;52.182;21.206;2023-09-08T05:42:40;7.40;;;5.78;;
36745;SDS011;22715;52.182;21.206;2023-09-08T05:45:05;7.90;;;5.72;;
36745;SDS011;22715;52.182;21.206;2023-09-08T05:47:30;10.02;;;6.50;;
36745;SDS011;22715;52.182;21.206;2023-09-08T05:49:59;11.38;;;6.85;;
36745;SDS011;22715;52.182;21.206;2023-09-08T05:52:24;9.43;;;6.25;;
36745;SDS011;22715;52.182;21.206;2023-09-08T05:54:51;7.50;;;6.70;;
36745;SDS011;22715;52.182;21.206;2023-09-08T05:57:16;9.77;;;5.95;;
36745;SDS011;22715;52.182;21.206;2023-09-08T05:59:42;7.60;;;5.80;;
36745;SDS011;22715;52.182;21.206;2023-09-08T06:02:07;9.05;;;5.88;;
36745;SDS011;22715;52.182;21.206;2023-09-08T06:04:32;8.10;;;6.00;;
36745;SDS011;22715;52.182;21.206;2023-09-08T06:06:58;8.68;;;6.10;;
36745;SDS011;22715;52.182;21.206;2023-09-08T06:09:23;9.55;;;6.70;;
36745;SDS011;22715;52.182;21.206;2023-09-08T06:11:48;11.68;;;7.55;;
36745;SDS011;22715;52.182;21.206;2023-09-08T06:14:13;11.00;;;6.40;;
36745;SDS011;22715;52.182;21.206;2023-09-08T06:16:39;10.33;;;7.37;;
36745;SDS011;22715;52.182;21.206;2023-09-08T06:19:08;12.48;;;6.55;;
36745;SDS011;22715;52.182;21.206;2023-09-08T06:21:33;7.97;;;7.10;;
36745;SDS011;22715;52.182;21.206;2023-09-08T06:23:58;10.65;;;6.63;;
36745;SDS011;22715;52.182;21.206;2023-09-08T06:26:23;8.23;;;5.85;;
36745;SDS011;22715;52.182;21.206;2023-09-08T06:28:49;14.30;;;8.10;;
36745;SDS011;22715;52.182;21.206;2023-09-08T06:31:14;11.35;;;7.75;;
36745;SDS011;22715;52.182;21.206;2023-09-08T06:33:40;9.40;;;6.35;;
36745;SDS011;22715;52.182;21.206;2023-09-08T06:36:05;8.70;;;5.88;;
36745;SDS011;22715;52.182;21.206;2023-09-08T06:38:31;8.50;;;6.28;;
36745;SDS011;22715;52.182;21.206;2023-09-08T06:40:57;12.48;;;7.75;;
36745;SDS011;22715;52.182;21.206;2023-09-08T06:43:22;7.93;;;6.18;;
36745;SDS011;22715;52.182;21.206;2023-09-08T06:45:48;15.30;;;6.32;;
36745;SDS011;22715;52.182;21.206;2023-09-08T06:48:17;12.18;;;6.97;;
36745;SDS011;22715;52.182;21.206;2023-09-08T06:50:42;7.00;;;6.28;;
36745;SDS011;22715;52.182;21.206;2023-09-08T06:53:07;12.07;;;6.85;;
36745;SDS011;22715;52.182;21.206;2023-09-08T06:55:32;8.07;;;6.30;;
36745;SDS011;22715;52.182;21.206;2023-09-08T06:57:58;11.43;;;5.60;;
36745;SDS011;22715;52.182;21.206;2023-09-08T07:00:23;8.70;;;6.55;;
36745;SDS011;22715;52.182;21.206;2023-09-08T07:02:48;8.75;;;5.82;;
36745;SDS011;22715;52.182;21.206;2023-09-08T07:05:17;11.27;;;6.72;;
36745;SDS011;22715;52.182;21.206;2023-09-08T07:07:42;9.82;;;6.53;;
36745;SDS011;22715;52.182;21.206;2023-09-08T07:10:08;11.05;;;6.88;;
36745;SDS011;22715;52.182;21.206;2023-09-08T07:12:33;8.73;;;6.07;;
36745;SDS011;22715;52.182;21.206;2023-09-08T07:14:59;8.05;;;6.45;;
36745;SDS011;22715;52.182;21.206;2023-09-08T07:17:27;9.75;;;6.45;;
36745;SDS011;22715;52.182;21.206;2023-09-08T07:19:52;11.05;;;6.75;;
36745;SDS011;22715;52.182;21.206;2023-09-08T07:22:18;11.57;;;6.07;;
36745;SDS011;22715;52.182;21.206;2023-09-08T07:24:44;8.07;;;5.43;;
36745;SDS011;22715;52.182;21.206;2023-09-08T07:27:09;8.75;;;6.68;;
36745;SDS011;22715;52.182;21.206;2023-09-08T07:29:35;9.82;;;7.32;;
36745;SDS011;22715;52.182;21.206;2023-09-08T07:32:00;11.40;;;6.45;;
36745;SDS011;22715;52.182;21.206;2023-09-08T07:34:25;8.10;;;5.73;;
36745;SDS011;22715;52.182;21.206;2023-09-08T07:36:50;12.40;;;6.07;;
36745;SDS011;22715;52.182;21.206;2023-09-08T07:39:16;5.65;;;4.88;;
36745;SDS011;22715;52.182;21.206;2023-09-08T07:41:41;8.20;;;6.30;;
36745;SDS011;22715;52.182;21.206;2023-09-08T07:44:06;6.93;;;6.30;;
36745;SDS011;22715;52.182;21.206;2023-09-08T07:46:32;7.10;;;5.15;;
36745;SDS011;22715;52.182;21.206;2023-09-08T07:48:58;9.48;;;5.47;;
36745;SDS011;22715;52.182;21.206;2023-09-08T07:51:23;13.30;;;7.45;;
36745;SDS011;22715;52.182;21.206;2023-09-08T07:53:48;10.90;;;6.57;;
36745;SDS011;22715;52.182;21.206;2023-09-08T07:56:14;10.80;;;6.97;;
36745;SDS011;22715;52.182;21.206;2023-09-08T07:58:39;11.45;;;6.28;;
36745;SDS011;22715;52.182;21.206;2023-09-08T08:01:04;7.95;;;5.30;;
36745;SDS011;22715;52.182;21.206;2023-09-08T08:03:30;8.70;;;5.80;;
36745;SDS011;22715;52.182;21.206;2023-09-08T08:05:56;8.38;;;5.57;;
36745;SDS011;22715;52.182;21.206;2023-09-08T08:08:21;10.65;;;5.40;;
36745;SDS011;22715;52.182;21.206;2023-09-08T08:10:47;10.75;;;7.90;;
36745;SDS011;22715;52.182;21.206;2023-09-08T08:13:12;8.85;;;5.68;;
36745;SDS011;22715;52.182;21.206;2023-09-08T08:15:38;9.25;;;5.53;;
36745;SDS011;22715;52.182;21.206;2023-09-08T08:18:04;9.18;;;7.03;;
36745;SDS011;22715;52.182;21.206;2023-09-08T08:20:29;8.45;;;6.32;;
36745;SDS011;22715;52.182;21.206;2023-09-08T08:22:57;8.43;;;5.65;;
36745;SDS011;22715;52.182;21.206;2023-09-08T08:25:22;7.55;;;6.18;;
36745;SDS011;22715;52.182;21.206;2023-09-08T08:27:47;9.93;;;6.53;;
36745;SDS011;22715;52.182;21.206;2023-09-08T08:30:12;8.60;;;5.77;;
36745;SDS011;22715;52.182;21.206;2023-09-08T08:32:38;6.72;;;5.53;;
36745;SDS011;22715;52.182;21.206;2023-09-08T08:35:03;10.05;;;5.85;;
36745;SDS011;22715;52.182;21.206;2023-09-08T08:37:32;11.55;;;6.25;;
36745;SDS011;22715;52.182;21.206;2023-09-08T08:39:57;11.27;;;6.63;;
36745;SDS011;22715;52.182;21.206;2023-09-08T08:42:22;6.95;;;6.10;;
36745;SDS011;22715;52.182;21.206;2023-09-08T08:44:48;9.40;;;5.70;;
36745;SDS011;22715;52.182;21.206;2023-09-08T08:47:14;6.45;;;5.85;;
36745;SDS011;22715;52.182;21.206;2023-09-08T08:49:41;11.95;;;7.50;;
36745;SDS011;22715;52.182;21.206;2023-09-08T08:52:08;7.60;;;5.47;;
36745;SDS011;22715;52.182;21.206;2023-09-08T08:54:40;8.90;;;5.97;;
36745;SDS011;22715;52.182;21.206;2023-09-08T08:57:06;16.30;;;6.55;;
36745;SDS011;22715;52.182;21.206;2023-09-08T08:59:32;10.60;;;7.70;;
36745;SDS011;22715;52.182;21.206;2023-09-08T09:01:58;9.38;;;6.13;;
36745;SDS011;22715;52.182;21.206;2023-09-08T09:04:23;11.65;;;5.85;;
36745;SDS011;22715;52.182;21.206;2023-09-08T09:06:49;10.07;;;7.32;;
36745;SDS011;22715;52.182;21.206;2023-09-08T09:09:14;6.55;;;5.03;;
36745;SDS011;22715;52.182;21.206;2023-09-08T09:11:40;9.07;;;5.88;;
36745;SDS011;22715;52.182;21.206;2023-09-08T09:14:05;7.13;;;5.97;;
36745;SDS011;22715;52.182;21.206;2023-09-08T09:16:30;7.63;;;5.13;;
36745;SDS011;22715;52.182;21.206;2023-09-08T09:18:56;5.88;;;4.93;;
36745;SDS011;22715;52.182;21.206;2023-09-08T09:21:22;6.65;;;4.90;;
36745;SDS011;22715;52.182;21.206;2023-09-08T09:23:47;9.55;;;5.45;;
36745;SDS011;22715;52.182;21.206;2023-09-08T09:26:22;9.02;;;5.93;;
36745;SDS011;22715;52.182;21.206;2023-09-08T09:28:47;14.13;;;6.03;;
36745;SDS011;22715;52.182;21.206;2023-09-08T09:31:13;5.03;;;4.57;;
36745;SDS011;22715;52.182;21.206;2023-09-08T09:33:38;8.47;;;5.03;;
36745;SDS011;22715;52.182;21.206;2023-09-08T09:36:04;8.00;;;4.97;;
36745;SDS011;22715;52.182;21.206;2023-09-08T09:38:30;6.45;;;4.63;;
36745;SDS011;22715;52.182;21.206;2023-09-08T09:40:55;9.75;;;4.55;;
36745;SDS011;22715;52.182;21.206;2023-09-08T09:43:24;7.30;;;4.15;;
36745;SDS011;22715;52.182;21.206;2023-09-08T09:45:49;6.68;;;4.40;;
36745;SDS011;22715;52.182;21.206;2023-09-08T09:48:14;6.43;;;4.75;;
36745;SDS011;22715;52.182;21.206;2023-09-08T09:50:40;7.45;;;4.72;;
36745;SDS011;22715;52.182;21.206;2023-09-08T09:53:13;6.75;;;4.47;;
36745;SDS011;22715;52.182;21.206;2023-09-08T09:55:39;11.85;;;5.63;;
36745;SDS011;22715;52.182;21.206;2023-09-08T09:58:05;5.00;;;4.47;;
36745;SDS011;22715;52.182;21.206;2023-09-08T10:00:30;4.45;;;3.92;;
36745;SDS011;22715;52.182;21.206;2023-09-08T10:02:58;4.53;;;4.07;;
36745;SDS011;22715;52.182;21.206;2023-09-08T10:05:24;4.65;;;4.05;;
36745;SDS011;22715;52.182;21.206;2023-09-08T10:07:49;6.45;;;4.30;;
36745;SDS011;22715;52.182;21.206;2023-09-08T10:10:15;8.60;;;4.20;;
36745;SDS011;22715;52.182;21.206;2023-09-08T10:12:43;3.85;;;3.55;;
36745;SDS011;22715;52.182;21.206;2023-09-08T10:15:09;6.25;;;4.60;;
36745;SDS011;22715;52.182;21.206;2023-09-08T10:17:35;4.55;;;4.13;;
36745;SDS011;22715;52.182;21.206;2023-09-08T10:20:01;7.60;;;3.95;;
36745;SDS011;22715;52.182;21.206;2023-09-08T10:22:36;7.38;;;3.80;;
36745;SDS011;22715;52.182;21.206;2023-09-08T10:25:03;6.70;;;4.78;;
36745;SDS011;22715;52.182;21.206;2023-09-08T10:27:29;5.10;;;4.38;;
36745;SDS011;22715;52.182;21.206;2023-09-08T10:29:54;8.90;;;4.95;;
36745;SDS011;22715;52.182;21.206;2023-09-08T10:32:20;4.95;;;4.10;;
36745;SDS011;22715;52.182;21.206;2023-09-08T10:34:45;3.78;;;3.47;;
36745;SDS011;22715;52.182;21.206;2023-09-08T10:37:21;5.03;;;3.97;;
36745;SDS011;22715;52.182;21.206;2023-09-08T10:39:46;3.53;;;3.22;;
36745;SDS011;22715;52.182;21.206;2023-09-08T10:44:44;4.10;;;3.75;;
36745;SDS011;22715;52.182;21.206;2023-09-08T10:47:09;9.25;;;3.80;;
36745;SDS011;22715;52.182;21.206;2023-09-08T10:49:35;4.43;;;3.42;;
36745;SDS011;22715;52.182;21.206;2023-09-08T10:52:10;4.00;;;3.50;;
36745;SDS011;22715;52.182;21.206;2023-09-08T10:57:14;5.90;;;3.97;;
36745;SDS011;22715;52.182;21.206;2023-09-08T10:59:40;6.35;;;5.28;;
36745;SDS011;22715;52.182;21.206;2023-09-08T11:02:05;5.03;;;4.53;;
36745;SDS011;22715;52.182;21.206;2023-09-08T11:04:30;6.57;;;5.67;;
36745;SDS011;22715;52.182;21.206;2023-09-08T11:06:57;7.18;;;5.40;;
36745;SDS011;22715;52.182;21.206;2023-09-08T11:09:22;4.85;;;4.38;;
36745;SDS011;22715;52.182;21.206;2023-09-08T11:11:48;7.72;;;4.40;;
36745;SDS011;22715;52.182;21.206;2023-09-08T11:14:13;4.57;;;4.18;;
36745;SDS011;22715;52.182;21.206;2023-09-08T11:16:39;6.63;;;4.30;;
36745;SDS011;22715;52.182;21.206;2023-09-08T11:19:04;5.47;;;4.63;;
36745;SDS011;22715;52.182;21.206;2023-09-08T11:21:30;7.13;;;4.53;;
36745;SDS011;22715;52.182;21.206;2023-09-08T11:24:00;6.50;;;4.03;;
36745;SDS011;22715;52.182;21.206;2023-09-08T11:26:25;7.30;;;5.15;;
36745;SDS011;22715;52.182;21.206;2023-09-08T11:28:51;5.22;;;4.82;;
36745;SDS011;22715;52.182;21.206;2023-09-08T11:31:18;4.35;;;3.95;;
36745;SDS011;22715;52.182;21.206;2023-09-08T11:33:43;4.72;;;4.32;;
36745;SDS011;22715;52.182;21.206;2023-09-08T11:36:12;7.82;;;4.78;;
36745;SDS011;22715;52.182;21.206;2023-09-08T11:38:42;5.20;;;4.70;;
36745;SDS011;22715;52.182;21.206;2023-09-08T11:41:07;4.97;;;4.32;;
36745;SDS011;22715;52.182;21.206;2023-09-08T11:43:33;7.95;;;5.45;;
36745;SDS011;22715;52.182;21.206;2023-09-08T11:45:59;5.68;;;4.95;;
36745;SDS011;22715;52.182;21.206;2023-09-08T11:48:27;8.35;;;5.38;;
36745;SDS011;22715;52.182;21.206;2023-09-08T11:50:53;5.53;;;4.25;;
36745;SDS011;22715;52.182;21.206;2023-09-08T11:53:19;5.30;;;4.80;;
36745;SDS011;22715;52.182;21.206;2023-09-08T11:55:44;5.75;;;4.90;;
36745;SDS011;22715;52.182;21.206;2023-09-08T11:58:10;5.68;;;4.93;;
36745;SDS011;22715;52.182;21.206;2023-09-08T12:00:36;7.05;;;4.07;;
36745;SDS011;22715;52.182;21.206;2023-09-08T12:03:11;5.78;;;4.18;;
36745;SDS011;22715;52.182;21.206;2023-09-08T12:05:37;6.03;;;4.53;;
36745;SDS011;22715;52.182;21.206;2023-09-08T12:08:03;6.75;;;4.47;;
36745;SDS011;22715;52.182;21.206;2023-09-08T12:10:30;5.22;;;4.72;;
36745;SDS011;22715;52.182;21.206;2023-09-08T12:13:02;6.00;;;4.72;;
36745;SDS011;22715;52.182;21.206;2023-09-08T12:15:31;7.13;;;5.15;;
36745;SDS011;22715;52.182;21.206;2023-09-08T12:18:03;5.80;;;4.80;;
36745;SDS011;22715;52.182;21.206;2023-09-08T12:20:32;7.90;;;4.60;;
36745;SDS011;22715;52.182;21.206;2023-09-08T12:22:58;7.22;;;5.22;;
36745;SDS011;22715;52.182;21.206;2023-09-08T12:25:24;9.52;;;4.93;;
36745;SDS011;22715;52.182;21.206;2023-09-08T12:27:50;4.63;;;4.23;;
36745;SDS011;22715;52.182;21.206;2023-09-08T12:30:22;5.28;;;4.40;;
36745;SDS011;22715;52.182;21.206;2023-09-08T12:32:55;8.18;;;4.03;;
36745;SDS011;22715;52.182;21.206;2023-09-08T12:35:21;5.68;;;4.55;;
36745;SDS011;22715;52.182;21.206;2023-09-08T12:37:47;5.85;;;5.20;;
36745;SDS011;22715;52.182;21.206;2023-09-08T12:40:13;5.53;;;4.65;;
36745;SDS011;22715;52.182;21.206;2023-09-08T12:42:40;9.55;;;4.18;;
36745;SDS011;22715;52.182;21.206;2023-09-08T12:45:05;5.20;;;4.60;;
36745;SDS011;22715;52.182;21.206;2023-09-08T12:47:31;5.57;;;4.40;;
36745;SDS011;22715;52.182;21.206;2023-09-08T12:49:56;7.60;;;5.13;;
36745;SDS011;22715;52.182;21.206;2023-09-08T12:52:21;5.50;;;5.00;;
36745;SDS011;22715;52.182;21.206;2023-09-08T12:54:47;6.75;;;4.53;;
36745;SDS011;22715;52.182;21.206;2023-09-08T12:57:12;6.70;;;5.32;;
36745;SDS011;22715;52.182;21.206;2023-09-08T12:59:37;5.65;;;4.88;;
36745;SDS011;22715;52.182;21.206;2023-09-08T13:02:03;5.77;;;4.83;;
36745;SDS011;22715;52.182;21.206;2023-09-08T13:04:28;5.60;;;4.20;;
36745;SDS011;22715;52.182;21.206;2023-09-08T13:06:53;8.10;;;4.73;;
36745;SDS011;22715;52.182;21.206;2023-09-08T13:09:19;8.98;;;4.75;;
36745;SDS011;22715;52.182;21.206;2023-09-08T13:11:45;7.10;;;4.35;;
36745;SDS011;22715;52.182;21.206;2023-09-08T13:14:10;6.90;;;5.53;;
36745;SDS011;22715;52.182;21.206;2023-09-08T13:16:36;7.18;;;5.22;;
36745;SDS011;22715;52.182;21.206;2023-09-08T13:19:01;7.13;;;4.55;;
36745;SDS011;22715;52.182;21.206;2023-09-08T13:21:29;7.70;;;5.35;;
36745;SDS011;22715;52.182;21.206;2023-09-08T13:23:55;6.45;;;4.88;;
36745;SDS011;22715;52.182;21.206;2023-09-08T13:26:20;7.07;;;5.38;;
36745;SDS011;22715;52.182;21.206;2023-09-08T13:28:46;7.45;;;5.45;;
36745;SDS011;22715;52.182;21.206;2023-09-08T13:31:11;8.00;;;4.95;;
36745;SDS011;22715;52.182;21.206;2023-09-08T13:33:36;8.40;;;5.30;;
36745;SDS011;22715;52.182;21.206;2023-09-08T13:36:02;7.77;;;5.60;;
36745;SDS011;22715;52.182;21.206;2023-09-08T13:38:27;7.45;;;4.82;;
36745;SDS011;22715;52.182;21.206;2023-09-08T13:40:52;9.17;;;4.90;;
36745;SDS011;22715;52.182;21.206;2023-09-08T13:43:18;6.15;;;5.55;;
36745;SDS011;22715;52.182;21.206;2023-09-08T13:45:43;5.78;;;5.25;;
36745;SDS011;22715;52.182;21.206;2023-09-08T13:48:08;6.28;;;4.90;;
36745;SDS011;22715;52.182;21.206;2023-09-08T13:50:34;6.40;;;5.15;;
36745;SDS011;22715;52.182;21.206;2023-09-08T13:52:59;7.68;;;5.00;;
36745;SDS011;22715;52.182;21.206;2023-09-08T13:55:24;7.70;;;5.40;;
36745;SDS011;22715;52.182;21.206;2023-09-08T13:57:52;5.80;;;5.23;;
36745;SDS011;22715;52.182;21.206;2023-09-08T14:00:17;9.52;;;5.05;;
36745;SDS011;22715;52.182;21.206;2023-09-08T14:02:43;7.20;;;4.85;;
36745;SDS011;22715;52.182;21.206;2023-09-08T14:05:08;7.22;;;4.90;;
36745;SDS011;22715;52.182;21.206;2023-09-08T14:07:34;5.40;;;4.87;;
36745;SDS011;22715;52.182;21.206;2023-09-08T14:09:59;9.63;;;6.53;;
36745;SDS011;22715;52.182;21.206;2023-09-08T14:12:26;8.50;;;5.72;;
36745;SDS011;22715;52.182;21.206;2023-09-08T14:14:51;6.40;;;5.80;;
36745;SDS011;22715;52.182;21.206;2023-09-08T14:17:17;8.60;;;6.20;;
36745;SDS011;22715;52.182;21.206;2023-09-08T14:19:42;8.23;;;6.27;;
36745;SDS011;22715;52.182;21.206;2023-09-08T14:22:07;7.88;;;5.35;;
36745;SDS011;22715;52.182;21.206;2023-09-08T14:24:32;6.13;;;5.53;;
36745;SDS011;22715;52.182;21.206;2023-09-08T14:26:58;8.10;;;6.07;;
36745;SDS011;22715;52.182;21.206;2023-09-08T14:29:23;11.00;;;6.03;;
36745;SDS011;22715;52.182;21.206;2023-09-08T14:31:50;7.90;;;6.40;;
36745;SDS011;22715;52.182;21.206;2023-09-08T14:34:15;7.63;;;5.55;;
36745;SDS011;22715;52.182;21.206;2023-09-08T14:36:41;6.20;;;5.70;;